sensor_id;sensor_type;location;lat;lon;timestamp;pressure;altitude;pressure_sealevel;temperature;humidity
50057;BME280;36875;49.468;11.200;2023-07-28T00:01:55;97232.97;;;20.19;60.70
50057;BME280;36875;49.468;11.200;2023-07-28T00:04:20;97227.50;;;20.19;61.19
50057;BME280;36875;49.468;11.200;2023-07-28T00:06:46;97220.44;;;20.18;61.07
50057;BME280;36875;49.468;11.200;2023-07-28T00:09:11;97223.97;;;20.19;61.01
50057;BME280;36875;49.468;11.200;2023-07-28T00:11:37;97218.84;;;20.17;61.19
50057;BME280;36875;49.468;11.200;2023-07-28T00:14:02;97225.09;;;20.18;61.18
50057;BME280;36875;49.468;11.200;2023-07-28T00:16:29;97217.72;;;20.18;61.25
50057;BME280;36875;49.468;11.200;2023-07-28T00:18:54;97213.06;;;20.19;61.39
50057;BME280;36875;49.468;11.200;2023-07-28T00:21:20;97210.63;;;20.17;60.90
50057;BME280;36875;49.468;11.200;2023-07-28T00:23:45;97208.69;;;20.18;60.97
50057;BME280;36875;49.468;11.200;2023-07-28T00:26:11;97201.34;;;20.18;61.30
50057;BME280;36875;49.468;11.200;2023-07-28T00:28:36;97208.69;;;20.18;60.75
50057;BME280;36875;49.468;11.200;2023-07-28T00:31:02;97200.50;;;20.18;61.14
50057;BME280;36875;49.468;11.200;2023-07-28T00:33:29;97198.91;;;20.17;60.27
50057;BME280;36875;49.468;11.200;2023-07-28T00:35:54;97199.72;;;20.17;61.04
50057;BME280;36875;49.468;11.200;2023-07-28T00:38:20;97198.59;;;20.18;61.13
50057;BME280;36875;49.468;11.200;2023-07-28T00:40:45;97189.59;;;20.18;61.48
50057;BME280;36875;49.468;11.200;2023-07-28T00:43:11;97196.19;;;20.17;61.22
50057;BME280;36875;49.468;11.200;2023-07-28T00:45:36;97194.25;;;20.17;61.27
50057;BME280;36875;49.468;11.200;2023-07-28T00:48:02;97199.72;;;20.17;61.01
50057;BME280;36875;49.468;11.200;2023-07-28T00:50:34;97206.31;;;20.16;61.42
50057;BME280;36875;49.468;11.200;2023-07-28T00:52:59;97209.06;;;20.16;61.73
50057;BME280;36875;49.468;11.200;2023-07-28T00:55:25;97195.41;;;20.16;61.04
50057;BME280;36875;49.468;11.200;2023-07-28T00:57:50;97201.97;;;20.15;61.14
50057;BME280;36875;49.468;11.200;2023-07-28T01:00:16;97201.66;;;20.17;61.13
50057;BME280;36875;49.468;11.200;2023-07-28T01:02:42;97209.06;;;20.16;61.97
50057;BME280;36875;49.468;11.200;2023-07-28T01:05:07;97200.84;;;20.16;61.28
50057;BME280;36875;49.468;11.200;2023-07-28T01:07:39;97211.78;;;20.16;61.44
50057;BME280;36875;49.468;11.200;2023-07-28T01:10:13;97200.03;;;20.16;61.21
50057;BME280;36875;49.468;11.200;2023-07-28T01:12:40;97202.78;;;20.16;60.91
50057;BME280;36875;49.468;11.200;2023-07-28T01:15:06;97199.25;;;20.15;61.49
50057;BME280;36875;49.468;11.200;2023-07-28T01:17:32;97200.03;;;20.16;61.32
50057;BME280;36875;49.468;11.200;2023-07-28T01:19:57;97191.84;;;20.16;61.05
50057;BME280;36875;49.468;11.200;2023-07-28T01:22:44;97196.50;;;20.15;60.99
50057;BME280;36875;49.468;11.200;2023-07-28T01:25:18;97197.63;;;20.14;61.38
50057;BME280;36875;49.468;11.200;2023-07-28T01:27:45;97193.00;;;20.15;61.20
50057;BME280;36875;49.468;11.200;2023-07-28T01:30:11;97195.72;;;20.15;61.14
50057;BME280;36875;49.468;11.200;2023-07-28T01:32:36;97196.50;;;20.15;61.27
50057;BME280;36875;49.468;11.200;2023-07-28T01:35:02;97191.38;;;20.14;61.29
50057;BME280;36875;49.468;11.200;2023-07-28T01:37:28;97188.66;;;20.14;61.84
50057;BME280;36875;49.468;11.200;2023-07-28T01:39:54;97201.19;;;20.15;61.83
50057;BME280;36875;49.468;11.200;2023-07-28T01:42:20;97195.25;;;20.13;61.51
50057;BME280;36875;49.468;11.200;2023-07-28T01:44:47;97196.03;;;20.13;61.85
50057;BME280;36875;49.468;11.200;2023-07-28T01:47:12;97193.31;;;20.13;61.59
50057;BME280;36875;49.468;11.200;2023-07-28T01:49:37;97188.50;;;20.10;61.94
50057;BME280;36875;49.468;11.200;2023-07-28T01:52:03;97194.44;;;20.12;62.02
50057;BME280;36875;49.468;11.200;2023-07-28T01:54:29;97190.91;;;20.12;61.79
50057;BME280;36875;49.468;11.200;2023-07-28T01:56:55;97193.31;;;20.13;61.32
50057;BME280;36875;49.468;11.200;2023-07-28T01:59:20;97190.59;;;20.13;61.67
50057;BME280;36875;49.468;11.200;2023-07-28T02:01:48;97191.38;;;20.14;61.42
50057;BME280;36875;49.468;11.200;2023-07-28T02:04:13;97191.38;;;20.14;61.35
50057;BME280;36875;49.468;11.200;2023-07-28T02:06:39;97199.91;;;20.12;61.66
50057;BME280;36875;49.468;11.200;2023-07-28T02:09:04;97191.22;;;20.10;62.02
50057;BME280;36875;49.468;11.200;2023-07-28T02:11:30;97190.91;;;20.12;61.74
50057;BME280;36875;49.468;11.200;2023-07-28T02:13:55;97187.06;;;20.13;61.65
50057;BME280;36875;49.468;11.200;2023-07-28T02:16:21;97193.63;;;20.12;61.49
50057;BME280;36875;49.468;11.200;2023-07-28T02:18:48;97188.97;;;20.12;61.92
50057;BME280;36875;49.468;11.200;2023-07-28T02:21:14;97193.63;;;20.12;61.65
50057;BME280;36875;49.468;11.200;2023-07-28T02:23:39;97197.03;;;20.09;61.57
50057;BME280;36875;49.468;11.200;2023-07-28T02:26:04;97198.31;;;20.11;62.08
50057;BME280;36875;49.468;11.200;2023-07-28T02:28:30;97189.66;;;20.09;62.07
50057;BME280;36875;49.468;11.200;2023-07-28T02:30:56;97191.22;;;20.10;61.75
50057;BME280;36875;49.468;11.200;2023-07-28T02:33:21;97190.44;;;20.10;61.52
50057;BME280;36875;49.468;11.200;2023-07-28T02:35:48;97209.25;;;20.11;61.71
50057;BME280;36875;49.468;11.200;2023-07-28T02:38:14;97199.44;;;20.10;61.61
50057;BME280;36875;49.468;11.200;2023-07-28T02:40:39;97207.31;;;20.12;61.63
50057;BME280;36875;49.468;11.200;2023-07-28T02:43:05;97202.16;;;20.10;61.53
50057;BME280;36875;49.468;11.200;2023-07-28T02:45:30;97199.75;;;20.09;62.07
50057;BME280;36875;49.468;11.200;2023-07-28T02:47:56;97200.56;;;20.09;61.73
50057;BME280;36875;49.468;11.200;2023-07-28T02:50:21;97206.03;;;20.09;62.08
50057;BME280;36875;49.468;11.200;2023-07-28T02:52:49;97220.50;;;20.10;62.32
50057;BME280;36875;49.468;11.200;2023-07-28T02:55:15;97207.63;;;20.10;61.46
50057;BME280;36875;49.468;11.200;2023-07-28T02:57:40;97206.03;;;20.09;62.14
50057;BME280;36875;49.468;11.200;2023-07-28T03:00:07;97206.03;;;20.09;61.85
50057;BME280;36875;49.468;11.200;2023-07-28T03:02:35;97206.03;;;20.09;62.01
50057;BME280;36875;49.468;11.200;2023-07-28T03:05:01;97211.50;;;20.09;62.42
50057;BME280;36875;49.468;11.200;2023-07-28T03:07:26;97198.16;;;20.08;61.92
50057;BME280;36875;49.468;11.200;2023-07-28T03:09:53;97211.50;;;20.09;61.84
50057;BME280;36875;49.468;11.200;2023-07-28T03:12:19;97214.56;;;20.08;62.36
50057;BME280;36875;49.468;11.200;2023-07-28T03:14:44;97215.34;;;20.08;61.88
50057;BME280;36875;49.468;11.200;2023-07-28T03:17:10;97214.22;;;20.09;61.83
50057;BME280;36875;49.468;11.200;2023-07-28T03:19:35;97202.84;;;20.07;62.11
50057;BME280;36875;49.468;11.200;2023-07-28T03:22:00;97204.41;;;20.08;62.54
50057;BME280;36875;49.468;11.200;2023-07-28T03:24:26;97207.47;;;20.07;62.29
50057;BME280;36875;49.468;11.200;2023-07-28T03:26:53;97213.75;;;20.07;62.23
50057;BME280;36875;49.468;11.200;2023-07-28T03:29:21;97221.94;;;20.07;62.11
50057;BME280;36875;49.468;11.200;2023-07-28T03:31:47;97213.75;;;20.07;61.74
50057;BME280;36875;49.468;11.200;2023-07-28T03:34:12;97220.81;;;20.08;62.27
50057;BME280;36875;49.468;11.200;2023-07-28T03:36:38;97216.50;;;20.07;62.14
50057;BME280;36875;49.468;11.200;2023-07-28T03:39:03;97218.41;;;20.07;62.09
50057;BME280;36875;49.468;11.200;2023-07-28T03:41:29;97224.69;;;20.07;62.11
50057;BME280;36875;49.468;11.200;2023-07-28T03:43:56;97216.50;;;20.07;61.63
50057;BME280;36875;49.468;11.200;2023-07-28T03:46:21;97221.47;;;20.05;62.79
50057;BME280;36875;49.468;11.200;2023-07-28T03:48:46;97218.41;;;20.07;62.49
50057;BME280;36875;49.468;11.200;2023-07-28T03:51:12;97218.72;;;20.05;62.09
50057;BME280;36875;49.468;11.200;2023-07-28T03:53:37;97212.16;;;20.06;62.06
50057;BME280;36875;49.468;11.200;2023-07-28T03:56:03;97219.53;;;20.06;62.09
50057;BME280;36875;49.468;11.200;2023-07-28T03:58:29;97217.13;;;20.04;62.75
50057;BME280;36875;49.468;11.200;2023-07-28T04:00:56;97208.63;;;20.06;62.12
50057;BME280;36875;49.468;11.200;2023-07-28T04:03:22;97201.22;;;20.06;62.29
50057;BME280;36875;49.468;11.200;2023-07-28T04:05:47;97192.88;;;20.02;62.19
50057;BME280;36875;49.468;11.200;2023-07-28T04:08:13;97201.22;;;20.06;62.17
50057;BME280;36875;49.468;11.200;2023-07-28T04:10:38;97205.56;;;20.07;62.09
50057;BME280;36875;49.468;11.200;2023-07-28T04:13:04;97217.59;;;20.06;62.38
50057;BME280;36875;49.468;11.200;2023-07-28T04:15:29;97217.59;;;20.06;62.33
50057;BME280;36875;49.468;11.200;2023-07-28T04:17:56;97211.34;;;20.06;61.98
50057;BME280;36875;49.468;11.200;2023-07-28T04:20:23;97230.47;;;20.06;62.05
50057;BME280;36875;49.468;11.200;2023-07-28T04:22:48;97243.31;;;20.05;62.38
50057;BME280;36875;49.468;11.200;2023-07-28T04:25:14;97232.38;;;20.05;62.53
50057;BME280;36875;49.468;11.200;2023-07-28T04:27:39;97219.09;;;20.03;62.54
50057;BME280;36875;49.468;11.200;2023-07-28T04:30:06;97215.19;;;20.05;62.52
50057;BME280;36875;49.468;11.200;2023-07-28T04:32:32;97222.59;;;20.04;62.62
50057;BME280;36875;49.468;11.200;2023-07-28T04:34:58;97226.91;;;20.05;62.42
50057;BME280;36875;49.468;11.200;2023-07-28T04:37:24;97218.72;;;20.05;62.64
50057;BME280;36875;49.468;11.200;2023-07-28T04:39:49;97218.72;;;20.05;62.31
50057;BME280;36875;49.468;11.200;2023-07-28T04:42:15;97224.53;;;20.03;62.80
50057;BME280;36875;49.468;11.200;2023-07-28T04:44:41;97219.09;;;20.03;62.64
50057;BME280;36875;49.468;11.200;2023-07-28T04:47:07;97228.06;;;20.04;62.50
50057;BME280;36875;49.468;11.200;2023-07-28T04:49:32;97224.53;;;20.03;62.84
50057;BME280;36875;49.468;11.200;2023-07-28T04:51:59;97223.41;;;20.05;62.39
50057;BME280;36875;49.468;11.200;2023-07-28T04:54:24;97223.41;;;20.05;62.83
50057;BME280;36875;49.468;11.200;2023-07-28T04:56:50;97217.94;;;20.05;62.19
50057;BME280;36875;49.468;11.200;2023-07-28T04:59:18;97218.25;;;20.03;62.25
50057;BME280;36875;49.468;11.200;2023-07-28T05:01:43;97217.94;;;20.05;62.68
50057;BME280;36875;49.468;11.200;2023-07-28T05:04:09;97217.47;;;20.02;63.10
50057;BME280;36875;49.468;11.200;2023-07-28T05:06:34;97212.78;;;20.03;62.47
50057;BME280;36875;49.468;11.200;2023-07-28T05:09:01;97215.53;;;20.03;62.83
50057;BME280;36875;49.468;11.200;2023-07-28T05:11:27;97221.00;;;20.03;63.02
50057;BME280;36875;49.468;11.200;2023-07-28T05:13:52;97223.41;;;20.05;63.01
50057;BME280;36875;49.468;11.200;2023-07-28T05:16:18;97218.25;;;20.03;62.68
50057;BME280;36875;49.468;11.200;2023-07-28T05:18:43;97227.75;;;20.06;62.92
50057;BME280;36875;49.468;11.200;2023-07-28T05:21:09;97217.94;;;20.05;63.05
50057;BME280;36875;49.468;11.200;2023-07-28T05:23:34;97225.34;;;20.04;63.65
50057;BME280;36875;49.468;11.200;2023-07-28T05:26:01;97219.09;;;20.03;62.90
50057;BME280;36875;49.468;11.200;2023-07-28T05:28:26;97220.66;;;20.05;63.55
50057;BME280;36875;49.468;11.200;2023-07-28T05:30:52;97229.31;;;20.07;63.99
50057;BME280;36875;49.468;11.200;2023-07-28T05:33:17;97228.69;;;20.10;64.10
50057;BME280;36875;49.468;11.200;2023-07-28T05:35:43;97225.94;;;20.10;63.87
50057;BME280;36875;49.468;11.200;2023-07-28T05:38:08;97229.47;;;20.10;63.59
50057;BME280;36875;49.468;11.200;2023-07-28T05:40:34;97230.63;;;20.09;63.83
50057;BME280;36875;49.468;11.200;2023-07-28T05:43:01;97234.16;;;20.10;63.67
50057;BME280;36875;49.468;11.200;2023-07-28T05:45:26;97235.41;;;20.12;63.82
50057;BME280;36875;49.468;11.200;2023-07-28T05:47:52;97233.16;;;20.14;64.09
50057;BME280;36875;49.468;11.200;2023-07-28T05:50:17;97233.16;;;20.14;63.95
50057;BME280;36875;49.468;11.200;2023-07-28T05:52:43;97242.63;;;20.17;64.28
50057;BME280;36875;49.468;11.200;2023-07-28T05:55:08;97241.00;;;20.16;64.04
50057;BME280;36875;49.468;11.200;2023-07-28T05:57:34;97244.41;;;20.13;63.63
50057;BME280;36875;49.468;11.200;2023-07-28T06:00:01;97241.34;;;20.14;63.64
50057;BME280;36875;49.468;11.200;2023-07-28T06:02:26;97244.41;;;20.13;63.95
50057;BME280;36875;49.468;11.200;2023-07-28T06:04:52;97243.59;;;20.12;63.79
50057;BME280;36875;49.468;11.200;2023-07-28T06:07:18;97249.06;;;20.12;63.64
50057;BME280;36875;49.468;11.200;2023-07-28T06:09:43;97247.94;;;20.13;63.63
50057;BME280;36875;49.468;11.200;2023-07-28T06:12:09;97245.53;;;20.12;64.03
50057;BME280;36875;49.468;11.200;2023-07-28T06:14:34;97238.13;;;20.12;64.00
50057;BME280;36875;49.468;11.200;2023-07-28T06:17:01;97247.47;;;20.11;63.14
50057;BME280;36875;49.468;11.200;2023-07-28T06:19:29;97247.81;;;20.10;63.09
50057;BME280;36875;49.468;11.200;2023-07-28T06:21:54;97247.00;;;20.09;63.27
50057;BME280;36875;49.468;11.200;2023-07-28T06:24:20;97243.47;;;20.09;63.29
50057;BME280;36875;49.468;11.200;2023-07-28T06:26:45;97248.13;;;20.08;63.71
50057;BME280;36875;49.468;11.200;2023-07-28T06:29:11;97250.53;;;20.10;64.05
50057;BME280;36875;49.468;11.200;2023-07-28T06:31:36;97256.00;;;20.10;64.05
50057;BME280;36875;49.468;11.200;2023-07-28T06:34:03;97266.13;;;20.09;64.24
50057;BME280;36875;49.468;11.200;2023-07-28T06:36:29;97261.47;;;20.10;64.12
50057;BME280;36875;49.468;11.200;2023-07-28T06:38:54;97262.25;;;20.10;63.66
50057;BME280;36875;49.468;11.200;2023-07-28T06:41:20;97263.53;;;20.13;63.86
50057;BME280;36875;49.468;11.200;2023-07-28T06:43:46;97259.19;;;20.12;63.70
50057;BME280;36875;49.468;11.200;2023-07-28T06:46:13;97265.44;;;20.12;63.36
50057;BME280;36875;49.468;11.200;2023-07-28T06:48:39;97260.34;;;20.11;63.99
50057;BME280;36875;49.468;11.200;2023-07-28T06:51:06;97260.34;;;20.11;63.78
50057;BME280;36875;49.468;11.200;2023-07-28T06:53:31;97266.13;;;20.09;64.08
50057;BME280;36875;49.468;11.200;2023-07-28T06:55:57;97271.59;;;20.09;64.00
50057;BME280;36875;49.468;11.200;2023-07-28T06:58:22;97276.22;;;20.09;64.29
50057;BME280;36875;49.468;11.200;2023-07-28T07:00:48;97275.13;;;20.10;64.18
50057;BME280;36875;49.468;11.200;2023-07-28T07:03:14;97279.78;;;20.09;64.34
50057;BME280;36875;49.468;11.200;2023-07-28T07:05:40;97290.38;;;20.11;63.78
50057;BME280;36875;49.468;11.200;2023-07-28T07:08:07;97277.84;;;20.10;63.66
50057;BME280;36875;49.468;11.200;2023-07-28T07:10:32;97283.31;;;20.10;62.67
50057;BME280;36875;49.468;11.200;2023-07-28T07:12:58;97287.97;;;20.09;63.56
50057;BME280;36875;49.468;11.200;2023-07-28T07:15:23;97278.97;;;20.09;63.91
50057;BME280;36875;49.468;11.200;2023-07-28T07:17:49;97283.63;;;20.08;63.94
50057;BME280;36875;49.468;11.200;2023-07-28T07:20:14;97280.56;;;20.10;64.14
50057;BME280;36875;49.468;11.200;2023-07-28T07:22:40;97289.56;;;20.10;64.18
50057;BME280;36875;49.468;11.200;2023-07-28T07:25:07;97287.97;;;20.09;64.57
50057;BME280;36875;49.468;11.200;2023-07-28T07:27:34;97296.97;;;20.10;64.80
50057;BME280;36875;49.468;11.200;2023-07-28T07:29:59;97300.50;;;20.10;64.28
50057;BME280;36875;49.468;11.200;2023-07-28T07:32:25;97306.28;;;20.09;64.44
50057;BME280;36875;49.468;11.200;2023-07-28T07:34:50;97296.50;;;20.08;64.06
50057;BME280;36875;49.468;11.200;2023-07-28T07:37:16;97307.09;;;20.09;64.16
50057;BME280;36875;49.468;11.200;2023-07-28T07:39:41;97310.63;;;20.10;64.17
50057;BME280;36875;49.468;11.200;2023-07-28T07:42:10;97309.84;;;20.09;64.19
50057;BME280;36875;49.468;11.200;2023-07-28T07:44:40;97307.09;;;20.09;64.05
50057;BME280;36875;49.468;11.200;2023-07-28T07:47:11;97305.97;;;20.10;64.04
50057;BME280;36875;49.468;11.200;2023-07-28T07:49:38;97311.41;;;20.10;64.15
50057;BME280;36875;49.468;11.200;2023-07-28T07:52:06;97315.94;;;20.06;63.82
50057;BME280;36875;49.468;11.200;2023-07-28T07:54:31;97317.72;;;20.11;64.09
50057;BME280;36875;49.468;11.200;2023-07-28T07:56:57;97333.28;;;20.10;64.08
50057;BME280;36875;49.468;11.200;2023-07-28T07:59:24;97331.69;;;20.09;64.06
50057;BME280;36875;49.468;11.200;2023-07-28T08:01:53;97332.81;;;20.08;63.79
50057;BME280;36875;49.468;11.200;2023-07-28T08:04:19;97335.22;;;20.10;63.79
50057;BME280;36875;49.468;11.200;2023-07-28T08:06:44;97346.94;;;20.10;63.78
50057;BME280;36875;49.468;11.200;2023-07-28T08:09:10;97336.00;;;20.10;64.11
50057;BME280;36875;49.468;11.200;2023-07-28T08:11:36;97338.41;;;20.12;63.65
50057;BME280;36875;49.468;11.200;2023-07-28T08:14:01;97346.28;;;20.13;63.67
50057;BME280;36875;49.468;11.200;2023-07-28T08:16:28;97342.75;;;20.13;63.67
50057;BME280;36875;49.468;11.200;2023-07-28T08:18:53;97339.69;;;20.14;63.87
50057;BME280;36875;49.468;11.200;2023-07-28T08:21:19;97347.56;;;20.16;63.38
50057;BME280;36875;49.468;11.200;2023-07-28T08:23:45;97342.91;;;20.16;63.86
50057;BME280;36875;49.468;11.200;2023-07-28T08:26:10;97344.03;;;20.15;63.51
50057;BME280;36875;49.468;11.200;2023-07-28T08:28:36;97337.44;;;20.16;63.86
50057;BME280;36875;49.468;11.200;2023-07-28T08:31:01;97340.19;;;20.16;63.35
50057;BME280;36875;49.468;11.200;2023-07-28T08:33:30;97338.09;;;20.13;63.50
50057;BME280;36875;49.468;11.200;2023-07-28T08:35:55;97349.03;;;20.13;63.70
50057;BME280;36875;49.468;11.200;2023-07-28T08:38:21;97345.97;;;20.15;63.47
50057;BME280;36875;49.468;11.200;2023-07-28T08:40:46;97349.50;;;20.15;63.64
50057;BME280;36875;49.468;11.200;2023-07-28T08:43:12;97350.59;;;20.14;63.42
50057;BME280;36875;49.468;11.200;2023-07-28T08:45:38;97349.50;;;20.15;63.89
50057;BME280;36875;49.468;11.200;2023-07-28T08:48:03;97353.84;;;20.16;63.93
50057;BME280;36875;49.468;11.200;2023-07-28T08:50:31;97351.13;;;20.16;63.42
50057;BME280;36875;49.468;11.200;2023-07-28T08:52:56;97351.13;;;20.16;63.54
50057;BME280;36875;49.468;11.200;2023-07-28T08:55:22;97352.38;;;20.19;63.52
50057;BME280;36875;49.468;11.200;2023-07-28T08:57:48;97345.28;;;20.18;63.09
50057;BME280;36875;49.468;11.200;2023-07-28T09:00:15;97354.78;;;20.20;64.07
50057;BME280;36875;49.468;11.200;2023-07-28T09:02:43;97350.13;;;20.21;63.56
50057;BME280;36875;49.468;11.200;2023-07-28T09:05:17;97345.28;;;20.18;63.83
50057;BME280;36875;49.468;11.200;2023-07-28T09:07:44;97346.13;;;20.18;63.66
50057;BME280;36875;49.468;11.200;2023-07-28T09:10:09;97357.19;;;20.22;63.31
50057;BME280;36875;49.468;11.200;2023-07-28T09:12:44;97348.19;;;20.21;64.06
50057;BME280;36875;49.468;11.200;2023-07-28T09:15:10;97350.91;;;20.21;63.57
50057;BME280;36875;49.468;11.200;2023-07-28T09:17:41;97356.38;;;20.21;63.97
50057;BME280;36875;49.468;11.200;2023-07-28T09:20:12;97350.91;;;20.21;64.18
50057;BME280;36875;49.468;11.200;2023-07-28T09:22:38;97356.38;;;20.21;64.39
50057;BME280;36875;49.468;11.200;2023-07-28T09:25:12;97353.66;;;20.21;64.34
50057;BME280;36875;49.468;11.200;2023-07-28T09:27:38;97350.91;;;20.21;64.31
50057;BME280;36875;49.468;11.200;2023-07-28T09:30:08;97347.06;;;20.22;64.13
50057;BME280;36875;49.468;11.200;2023-07-28T09:32:34;97351.38;;;20.23;64.29
50057;BME280;36875;49.468;11.200;2023-07-28T09:35:09;97358.00;;;20.22;64.08
50057;BME280;36875;49.468;11.200;2023-07-28T09:37:37;97354.13;;;20.23;64.01
50057;BME280;36875;49.468;11.200;2023-07-28T09:40:03;97361.53;;;20.23;64.71
50057;BME280;36875;49.468;11.200;2023-07-28T09:42:31;97360.09;;;20.26;64.85
50057;BME280;36875;49.468;11.200;2023-07-28T09:44:57;97366.03;;;20.28;65.30
50057;BME280;36875;49.468;11.200;2023-07-28T09:47:23;97365.69;;;20.29;64.90
50057;BME280;36875;49.468;11.200;2023-07-28T09:49:50;97367.59;;;20.29;64.61
50057;BME280;36875;49.468;11.200;2023-07-28T09:52:18;97366.50;;;20.30;64.72
50057;BME280;36875;49.468;11.200;2023-07-28T09:54:48;97369.22;;;20.30;64.73
50057;BME280;36875;49.468;11.200;2023-07-28T09:57:14;97358.28;;;20.30;64.39
50057;BME280;36875;49.468;11.200;2023-07-28T09:59:47;97364.56;;;20.30;64.33
50057;BME280;36875;49.468;11.200;2023-07-28T10:02:13;97374.38;;;20.31;63.81
50057;BME280;36875;49.468;11.200;2023-07-28T10:04:39;97366.97;;;20.32;63.96
50057;BME280;36875;49.468;11.200;2023-07-28T10:07:05;97369.38;;;20.33;64.12
50057;BME280;36875;49.468;11.200;2023-07-28T10:09:33;97366.31;;;20.35;64.02
50057;BME280;36875;49.468;11.200;2023-07-28T10:11:59;97367.59;;;20.37;64.24
50057;BME280;36875;49.468;11.200;2023-07-28T10:14:26;97367.91;;;20.36;64.53
50057;BME280;36875;49.468;11.200;2023-07-28T10:16:54;97375.63;;;20.34;64.24
50057;BME280;36875;49.468;11.200;2023-07-28T10:19:20;97367.44;;;20.34;64.11
50057;BME280;36875;49.468;11.200;2023-07-28T10:21:46;97364.72;;;20.34;64.25
50057;BME280;36875;49.468;11.200;2023-07-28T10:24:12;97366.66;;;20.33;64.28
50057;BME280;36875;49.468;11.200;2023-07-28T10:26:40;97374.03;;;20.33;64.67
50057;BME280;36875;49.468;11.200;2023-07-28T10:29:11;97377.25;;;20.35;64.55
50057;BME280;36875;49.468;11.200;2023-07-28T10:31:37;97389.31;;;20.34;64.40
50057;BME280;36875;49.468;11.200;2023-07-28T10:34:04;97384.97;;;20.33;64.32
50057;BME280;36875;49.468;11.200;2023-07-28T10:36:34;97386.41;;;20.30;64.28
50057;BME280;36875;49.468;11.200;2023-07-28T10:39:00;97394.28;;;20.32;64.39
50057;BME280;36875;49.468;11.200;2023-07-28T10:41:27;97390.75;;;20.31;64.51
50057;BME280;36875;49.468;11.200;2023-07-28T10:43:53;97393.50;;;20.31;64.27
50057;BME280;36875;49.468;11.200;2023-07-28T10:46:21;97394.28;;;20.32;64.40
50057;BME280;36875;49.468;11.200;2023-07-28T10:48:48;97397.34;;;20.30;64.49
50057;BME280;36875;49.468;11.200;2023-07-28T10:51:21;97397.97;;;20.36;64.03
50057;BME280;36875;49.468;11.200;2023-07-28T10:53:49;97400.69;;;20.36;64.47
50057;BME280;36875;49.468;11.200;2023-07-28T10:56:15;97397.66;;;20.37;64.62
50057;BME280;36875;49.468;11.200;2023-07-28T10:58:40;97403.91;;;20.38;64.44
50057;BME280;36875;49.468;11.200;2023-07-28T11:01:06;97402.78;;;20.39;64.62
50057;BME280;36875;49.468;11.200;2023-07-28T11:03:32;97400.06;;;20.39;64.54
50057;BME280;36875;49.468;11.200;2023-07-28T11:05:58;97395.53;;;20.43;64.46
50057;BME280;36875;49.468;11.200;2023-07-28T11:08:26;97399.69;;;20.49;64.42
50057;BME280;36875;49.468;11.200;2023-07-28T11:10:52;97396.78;;;20.54;64.33
50057;BME280;36875;49.468;11.200;2023-07-28T11:13:17;97402.25;;;20.54;64.26
50057;BME280;36875;49.468;11.200;2023-07-28T11:15:43;97396.00;;;20.54;64.21
50057;BME280;36875;49.468;11.200;2023-07-28T11:18:08;97404.34;;;20.57;64.09
50057;BME280;36875;49.468;11.200;2023-07-28T11:20:35;97406.59;;;20.55;64.11
50057;BME280;36875;49.468;11.200;2023-07-28T11:23:01;97398.41;;;20.55;64.01
50057;BME280;36875;49.468;11.200;2023-07-28T11:25:32;97395.34;;;20.57;64.07
50057;BME280;36875;49.468;11.200;2023-07-28T11:28:00;97392.94;;;20.55;64.21
50057;BME280;36875;49.468;11.200;2023-07-28T11:30:26;97395.19;;;20.53;64.23
50057;BME280;36875;49.468;11.200;2023-07-28T11:32:53;97401.00;;;20.52;64.15
50057;BME280;36875;49.468;11.200;2023-07-28T11:35:20;97400.81;;;20.57;64.20
50057;BME280;36875;49.468;11.200;2023-07-28T11:37:47;97399.19;;;20.65;64.01
50057;BME280;36875;49.468;11.200;2023-07-28T11:40:17;97390.22;;;20.64;63.71
50057;BME280;36875;49.468;11.200;2023-07-28T11:42:46;97391.78;;;20.65;63.63
50057;BME280;36875;49.468;11.200;2023-07-28T11:45:14;97391.66;;;20.62;64.14
50057;BME280;36875;49.468;11.200;2023-07-28T11:47:52;97398.56;;;20.59;63.90
50057;BME280;36875;49.468;11.200;2023-07-28T11:50:22;97393.59;;;20.61;63.94
50057;BME280;36875;49.468;11.200;2023-07-28T11:52:48;97399.66;;;20.58;63.82
50057;BME280;36875;49.468;11.200;2023-07-28T11:55:14;97392.94;;;20.55;63.88
50057;BME280;36875;49.468;11.200;2023-07-28T11:57:42;97405.47;;;20.56;63.78
50057;BME280;36875;49.468;11.200;2023-07-28T12:00:13;97400.81;;;20.57;63.68
50057;BME280;36875;49.468;11.200;2023-07-28T12:02:42;97399.66;;;20.58;63.63
50057;BME280;36875;49.468;11.200;2023-07-28T12:05:12;97405.47;;;20.56;63.66
50057;BME280;36875;49.468;11.200;2023-07-28T12:07:37;97400.34;;;20.55;63.71
50057;BME280;36875;49.468;11.200;2023-07-28T12:10:04;97403.38;;;20.62;63.62
50057;BME280;36875;49.468;11.200;2023-07-28T12:12:39;97403.38;;;20.62;63.87
50057;BME280;36875;49.468;11.200;2023-07-28T12:15:19;97402.88;;;20.60;63.49
50057;BME280;36875;49.468;11.200;2023-07-28T12:18:09;97399.34;;;20.59;63.66
50057;BME280;36875;49.468;11.200;2023-07-28T12:20:36;97404.81;;;20.59;63.75
50057;BME280;36875;49.468;11.200;2023-07-28T12:23:02;97403.38;;;20.62;63.46
50057;BME280;36875;49.468;11.200;2023-07-28T12:25:29;97407.72;;;20.63;63.32
50057;BME280;36875;49.468;11.200;2023-07-28T12:27:54;97412.88;;;20.65;63.58
50057;BME280;36875;49.468;11.200;2023-07-28T12:30:22;97406.63;;;20.64;63.48
50057;BME280;36875;49.468;11.200;2023-07-28T12:32:47;97412.06;;;20.64;63.13
50057;BME280;36875;49.468;11.200;2023-07-28T12:35:13;97405.47;;;20.65;63.05
50057;BME280;36875;49.468;11.200;2023-07-28T12:37:39;97408.19;;;20.65;63.30
50057;BME280;36875;49.468;11.200;2023-07-28T12:40:05;97407.88;;;20.67;63.19
50057;BME280;36875;49.468;11.200;2023-07-28T12:42:31;97408.19;;;20.65;63.20
50057;BME280;36875;49.468;11.200;2023-07-28T12:44:57;97412.88;;;20.65;63.10
50057;BME280;36875;49.468;11.200;2023-07-28T12:47:23;97416.72;;;20.64;63.11